createdAt,value
2022-10-07T00:00:21.566Z,100.00
2022-10-07T00:02:50.425Z,100.00
2022-10-07T00:05:19.212Z,100.00
2022-10-07T00:07:47.971Z,100.00
2022-10-07T00:10:16.540Z,100.00
2022-10-07T00:12:45.219Z,100.00
2022-10-07T00:15:13.863Z,100.00
2022-10-07T00:17:43.691Z,100.00
2022-10-07T00:20:12.792Z,100.00
2022-10-07T00:22:44.150Z,100.00
2022-10-07T00:25:12.758Z,100.00
2022-10-07T00:27:43.363Z,100.00
2022-10-07T00:30:13.152Z,100.00
2022-10-07T00:32:41.731Z,100.00
2022-10-07T00:35:11.974Z,100.00
2022-10-07T00:37:42.703Z,100.00
2022-10-07T00:40:14.217Z,100.00
2022-10-07T00:42:44.518Z,100.00
2022-10-07T00:45:20.126Z,100.00
2022-10-07T00:47:51.891Z,100.00
2022-10-07T00:50:29.636Z,100.00
2022-10-07T00:53:00.670Z,100.00
2022-10-07T00:55:32.348Z,100.00
2022-10-07T00:58:05.972Z,100.00
2022-10-07T01:00:35.071Z,100.00
2022-10-07T01:03:05.465Z,100.00
2022-10-07T01:05:35.995Z,100.00
2022-10-07T01:08:04.656Z,100.00
2022-10-07T01:10:38.443Z,100.00
2022-10-07T01:13:14.379Z,100.00
2022-10-07T01:16:10.627Z,100.00
2022-10-07T01:18:45.070Z,100.00
2022-10-07T01:21:25.035Z,100.00
2022-10-07T01:24:16.314Z,100.00
2022-10-07T01:26:47.894Z,100.00
2022-10-07T01:29:22.361Z,100.00
2022-10-07T01:32:08.964Z,100.00
2022-10-07T01:34:40.003Z,100.00
2022-10-07T01:37:11.907Z,100.00
2022-10-07T01:39:43.579Z,100.00
2022-10-07T01:42:13.272Z,100.00
2022-10-07T01:44:44.704Z,100.00
2022-10-07T01:47:13.350Z,100.00
2022-10-07T01:49:41.966Z,100.00
2022-10-07T01:52:13.613Z,100.00
2022-10-07T01:54:48.286Z,100.00
2022-10-07T01:57:22.444Z,100.00
2022-10-07T02:00:13.217Z,100.00
2022-10-07T02:02:56.806Z,100.00
2022-10-07T02:05:40.513Z,100.00
2022-10-07T02:08:39.286Z,100.00
2022-10-07T02:11:19.319Z,100.00
2022-10-07T02:13:58.367Z,100.00
2022-10-07T02:16:35.676Z,100.00
2022-10-07T02:19:07.560Z,100.00
2022-10-07T02:21:37.739Z,100.00
2022-10-07T02:24:08.643Z,100.00
2022-10-07T02:26:38.875Z,100.00
2022-10-07T02:29:13.397Z,100.00
2022-10-07T02:31:44.266Z,100.00
2022-10-07T02:34:19.699Z,100.00
2022-10-07T02:36:49.207Z,100.00
2022-10-07T02:39:20.313Z,100.00
2022-10-07T02:41:58.440Z,100.00
2022-10-07T02:44:30.095Z,100.00
2022-10-07T02:47:16.615Z,100.00
2022-10-07T02:49:48.223Z,100.00
2022-10-07T02:52:19.612Z,100.00
2022-10-07T02:55:03.610Z,100.00
2022-10-07T02:57:37.945Z,100.00
2022-10-07T03:00:11.101Z,100.00
2022-10-07T03:02:54.197Z,100.00
2022-10-07T03:05:24.519Z,100.00
2022-10-07T03:07:58.578Z,100.00
2022-10-07T03:10:30.213Z,100.00
2022-10-07T03:13:00.355Z,100.00
2022-10-07T03:15:30.542Z,100.00
2022-10-07T03:17:59.131Z,100.00
2022-10-07T03:20:35.271Z,100.00
2022-10-07T03:23:03.806Z,100.00
2022-10-07T03:25:38.219Z,100.00
2022-10-07T03:28:06.768Z,100.00
2022-10-07T03:30:35.564Z,100.00
2022-10-07T03:33:04.074Z,100.00
2022-10-07T03:35:35.603Z,100.00
2022-10-07T03:38:05.840Z,100.00
2022-10-07T03:40:34.449Z,100.00
2022-10-07T03:43:03.286Z,100.00
2022-10-07T03:45:32.396Z,100.00
2022-10-07T03:48:02.578Z,100.00
2022-10-07T03:50:31.304Z,100.00
2022-10-07T03:53:01.544Z,100.00
2022-10-07T03:55:30.141Z,100.00
2022-10-07T03:57:59.831Z,100.00
2022-10-07T04:00:29.310Z,100.00
2022-10-07T04:02:59.788Z,100.00
2022-10-07T04:05:35.064Z,100.00
2022-10-07T04:07:59.802Z,100.00
2022-10-07T04:10:28.471Z,100.00
2022-10-07T04:12:57.137Z,100.00
2022-10-07T04:15:25.883Z,100.00
2022-10-07T04:17:58.851Z,100.00
2022-10-07T04:20:30.871Z,100.00
2022-10-07T04:22:59.664Z,100.00
2022-10-07T04:25:34.076Z,100.00
2022-10-07T04:28:06.459Z,100.00
2022-10-07T04:30:38.473Z,100.00
2022-10-07T04:33:10.366Z,100.00
2022-10-07T04:35:41.353Z,100.00
2022-10-07T04:38:11.312Z,100.00
2022-10-07T04:40:46.579Z,100.00
2022-10-07T04:43:30.443Z,100.00
2022-10-07T04:46:04.815Z,100.00
2022-10-07T04:48:33.919Z,100.00
2022-10-07T04:51:09.614Z,100.00
2022-10-07T04:53:39.560Z,100.00
2022-10-07T04:56:09.700Z,100.00
2022-10-07T04:58:38.639Z,100.00
2022-10-07T05:01:13.581Z,100.00
2022-10-07T05:03:44.001Z,100.00
2022-10-07T05:06:14.089Z,100.00
2022-10-07T05:08:44.324Z,100.00
2022-10-07T05:11:13.011Z,100.00
2022-10-07T05:13:43.530Z,100.00
2022-10-07T05:16:18.084Z,100.00
2022-10-07T05:18:54.919Z,100.00
2022-10-07T05:21:30.035Z,100.00
2022-10-07T05:23:59.003Z,100.00
2022-10-07T05:26:27.891Z,100.00
2022-10-07T05:28:56.740Z,100.00
2022-10-07T05:31:26.467Z,100.00
2022-10-07T05:33:56.879Z,100.00
2022-10-07T05:36:25.953Z,100.00
2022-10-07T05:38:58.569Z,100.00
2022-10-07T06:11:20.966Z,100.00
2022-10-07T06:18:14.665Z,100.00
2022-10-07T06:29:43.800Z,100.00
2022-10-07T06:32:15.587Z,100.00
2022-10-07T06:34:56.662Z,100.00
2022-10-07T06:40:17.410Z,100.00
2022-10-07T06:45:45.532Z,100.00
2022-10-07T06:48:19.390Z,100.00
2022-10-07T06:51:16.953Z,100.00
2022-10-07T06:53:47.182Z,100.00
2022-10-07T06:56:16.059Z,100.00
2022-10-07T06:58:55.291Z,100.00
2022-10-07T07:01:27.546Z,100.00
2022-10-07T07:03:57.683Z,100.00
2022-10-07T07:06:31.476Z,100.00
2022-10-07T07:09:06.650Z,100.00
2022-10-07T07:14:36.080Z,100.00
2022-10-07T07:17:17.758Z,100.00
2022-10-07T07:19:40.417Z,100.00
2022-10-07T07:22:10.642Z,100.00
2022-10-07T07:24:41.673Z,100.00
2022-10-07T07:27:11.849Z,100.00
2022-10-07T07:29:46.726Z,100.00
2022-10-07T07:32:20.111Z,100.00
2022-10-07T07:34:50.477Z,100.00
2022-10-07T07:37:28.136Z,100.00
2022-10-07T07:42:59.878Z,100.00
2022-10-07T07:45:35.194Z,100.00
2022-10-07T07:48:07.669Z,100.00
2022-10-07T07:50:43.143Z,100.00
2022-10-07T07:53:25.408Z,100.00
2022-10-07T07:56:05.364Z,100.00
2022-10-07T07:58:34.719Z,100.00
2022-10-07T08:01:09.275Z,100.00
2022-10-07T08:03:38.707Z,100.00
2022-10-07T08:06:10.268Z,100.00
2022-10-07T08:08:48.991Z,100.00
2022-10-07T08:11:21.369Z,100.00
2022-10-07T08:14:00.129Z,100.00
2022-10-07T08:16:30.835Z,100.00
2022-10-07T08:19:01.140Z,100.00
2022-10-07T08:21:34.005Z,100.00
2022-10-07T08:24:12.858Z,100.00
2022-10-07T08:26:42.398Z,100.00
2022-10-07T08:29:20.973Z,100.00
2022-10-07T08:31:58.467Z,100.00
2022-10-07T08:34:36.309Z,100.00
2022-10-07T08:37:20.009Z,100.00
2022-10-07T08:39:47.884Z,100.00
2022-10-07T08:42:20.276Z,100.00
2022-10-07T08:44:51.821Z,100.00
2022-10-07T08:47:40.995Z,100.00
2022-10-07T08:50:37.609Z,100.00
2022-10-07T08:53:11.750Z,100.00
2022-10-07T08:56:01.631Z,100.00
2022-10-07T08:58:55.599Z,100.00
2022-10-07T09:01:33.846Z,100.00
2022-10-07T09:04:20.952Z,100.00
2022-10-07T09:07:01.252Z,100.00
2022-10-07T09:09:38.882Z,100.00
2022-10-07T09:12:12.480Z,100.00
2022-10-07T09:14:44.637Z,100.00
2022-10-07T09:17:37.648Z,100.00
2022-10-07T09:20:09.852Z,100.00
2022-10-07T09:22:46.492Z,100.00
2022-10-07T09:25:18.386Z,100.00
2022-10-07T09:27:48.959Z,100.00
2022-10-07T09:30:18.460Z,100.00
2022-10-07T09:32:54.518Z,100.00
2022-10-07T09:35:29.901Z,100.00
2022-10-07T09:38:07.661Z,100.00
2022-10-07T09:40:41.455Z,100.00
2022-10-07T09:43:16.714Z,100.00
2022-10-07T09:45:47.493Z,100.00
2022-10-07T09:48:35.581Z,100.00
2022-10-07T09:51:20.708Z,100.00
2022-10-07T09:54:02.939Z,100.00
2022-10-07T09:56:37.680Z,100.00
2022-10-07T09:59:22.818Z,100.00
2022-10-07T10:02:28.801Z,100.00
2022-10-07T10:04:58.482Z,100.00
2022-10-07T10:07:42.771Z,100.00
2022-10-07T10:10:26.187Z,100.00
2022-10-07T10:12:58.126Z,100.00
2022-10-07T10:15:46.925Z,100.00
2022-10-07T10:18:37.358Z,100.00
2022-10-07T10:21:25.894Z,100.00
2022-10-07T10:23:57.779Z,100.00
2022-10-07T10:26:48.229Z,90.30
2022-10-07T10:29:38.028Z,87.39
2022-10-07T10:32:17.814Z,78.50
2022-10-07T10:35:03.277Z,71.52
2022-10-07T10:38:08.275Z,65.61
2022-10-07T10:40:58.074Z,64.26
2022-10-07T10:43:46.789Z,64.81
2022-10-07T10:46:51.675Z,64.86
2022-10-07T10:49:31.789Z,65.44
2022-10-07T10:52:45.611Z,64.28
2022-10-07T10:55:08.384Z,63.59
2022-10-07T10:57:45.915Z,62.23
2022-10-07T11:00:23.264Z,62.58
2022-10-07T11:03:01.628Z,62.19
2022-10-07T11:05:44.874Z,62.12
2022-10-07T11:08:27.330Z,62.75
2022-10-07T11:11:08.241Z,53.26
2022-10-07T11:13:47.164Z,51.27
2022-10-07T11:16:25.183Z,47.63
2022-10-07T11:19:09.028Z,47.40
2022-10-07T11:21:43.607Z,47.71
2022-10-07T11:24:42.516Z,47.61
2022-10-07T11:27:30.867Z,46.74
2022-10-07T11:30:22.170Z,43.92
2022-10-07T11:32:58.611Z,43.65
2022-10-07T11:35:44.024Z,42.81
2022-10-07T11:38:28.064Z,44.03
2022-10-07T11:41:11.649Z,44.34
2022-10-07T11:43:55.124Z,43.55
2022-10-07T11:46:32.372Z,43.06
2022-10-07T11:49:22.168Z,44.16
2022-10-07T11:52:10.223Z,43.37
2022-10-07T11:54:54.142Z,42.74
2022-10-07T11:57:33.992Z,43.00
2022-10-07T12:00:25.582Z,42.61
2022-10-07T12:03:28.927Z,42.21
2022-10-07T12:06:02.526Z,41.94
2022-10-07T12:08:42.735Z,42.54
2022-10-07T12:11:19.311Z,41.55
2022-10-07T12:13:54.007Z,41.65
2022-10-07T12:16:33.903Z,41.35
2022-10-07T12:19:23.030Z,41.15
2022-10-07T12:22:05.522Z,41.19
2022-10-07T12:24:41.917Z,41.32
2022-10-07T12:27:19.740Z,40.51
2022-10-07T12:30:02.295Z,41.41
2022-10-07T12:32:57.521Z,40.46
2022-10-07T12:35:51.320Z,41.06
2022-10-07T12:38:33.049Z,40.67
2022-10-07T12:41:25.101Z,40.16
2022-10-07T12:44:32.627Z,40.29
2022-10-07T12:47:17.692Z,40.77
2022-10-07T12:49:55.742Z,40.42
2022-10-07T12:52:49.109Z,39.90
2022-10-07T12:55:29.135Z,39.60
2022-10-07T12:58:17.079Z,39.39
2022-10-07T13:01:17.805Z,39.17
2022-10-07T13:04:05.858Z,39.07
2022-10-07T13:07:03.145Z,39.54
2022-10-07T13:10:17.403Z,40.60
2022-10-07T13:12:52.373Z,39.98
2022-10-07T13:15:27.054Z,39.01
2022-10-07T13:18:10.650Z,38.65
2022-10-07T13:20:50.375Z,38.75
2022-10-07T13:23:27.233Z,38.62
2022-10-07T13:25:59.639Z,39.00
2022-10-07T13:28:47.262Z,38.43
2022-10-07T13:31:19.540Z,38.79
2022-10-07T13:33:52.536Z,38.56
2022-10-07T13:36:28.756Z,38.53
2022-10-07T13:39:02.167Z,39.46
2022-10-07T13:41:36.163Z,38.67
2022-10-07T13:44:12.516Z,39.20
2022-10-07T13:46:44.279Z,38.68
2022-10-07T13:49:26.584Z,38.97
2022-10-07T13:52:03.776Z,38.56
2022-10-07T13:54:40.262Z,39.64
2022-10-07T13:57:21.045Z,39.27
2022-10-07T14:03:17.391Z,40.49
2022-10-07T14:06:09.587Z,39.42
2022-10-07T14:08:55.837Z,40.31
2022-10-07T14:14:35.964Z,40.94
2022-10-07T14:17:28.324Z,41.14
2022-10-07T14:20:01.255Z,40.89
2022-10-07T14:25:31.470Z,41.05
2022-10-07T14:28:11.580Z,40.31
2022-10-07T14:31:00.457Z,40.77
2022-10-07T14:34:18.240Z,41.14
2022-10-07T14:37:08.525Z,41.67
2022-10-07T14:39:43.190Z,42.80
2022-10-07T14:42:48.937Z,42.40
2022-10-07T14:45:28.804Z,41.99
2022-10-07T14:48:13.996Z,43.04
2022-10-07T14:50:45.504Z,43.71
2022-10-07T14:53:21.039Z,43.88
2022-10-07T14:55:55.998Z,44.39
2022-10-07T14:58:27.621Z,44.93
2022-10-07T15:01:04.117Z,45.25
2022-10-07T15:03:33.499Z,45.24
2022-10-07T15:06:07.198Z,45.07
2022-10-07T15:08:41.555Z,45.79
2022-10-07T15:11:16.486Z,46.70
2022-10-07T15:14:03.797Z,47.41
2022-10-07T15:16:31.185Z,48.27
2022-10-07T15:19:11.225Z,47.93
2022-10-07T15:21:48.746Z,47.62
2022-10-07T15:24:21.504Z,47.11
2022-10-07T15:26:51.989Z,47.73
2022-10-07T15:29:22.340Z,48.41
2022-10-07T15:31:57.862Z,49.52
2022-10-07T15:34:28.449Z,50.98
2022-10-07T15:36:59.154Z,51.07
2022-10-07T15:39:28.348Z,50.73
2022-10-07T15:41:57.069Z,51.75
2022-10-07T15:44:27.389Z,52.15
2022-10-07T15:46:57.881Z,52.71
2022-10-07T15:49:29.789Z,54.51
2022-10-07T15:52:03.400Z,55.29
2022-10-07T15:54:34.333Z,56.04
2022-10-07T15:57:04.522Z,58.29
2022-10-07T15:59:38.617Z,58.00
2022-10-07T16:02:11.450Z,58.79
2022-10-07T16:04:40.241Z,59.71
2022-10-07T16:07:12.467Z,60.77
2022-10-07T16:09:41.877Z,62.36
2022-10-07T16:12:10.606Z,66.68
2022-10-07T16:14:39.581Z,67.22
2022-10-07T16:17:08.482Z,74.31
2022-10-07T16:19:38.918Z,79.29
2022-10-07T16:22:07.745Z,83.34
2022-10-07T16:24:37.440Z,93.96
2022-10-07T16:27:09.209Z,94.60
2022-10-07T16:29:56.260Z,92.41
2022-10-07T16:32:25.006Z,97.28
2022-10-07T16:34:53.899Z,100.00
2022-10-07T16:37:27.630Z,100.00
2022-10-07T16:39:58.204Z,100.00
2022-10-07T16:42:30.582Z,100.00
2022-10-07T16:45:02.467Z,100.00
2022-10-07T16:47:35.512Z,100.00
2022-10-07T16:50:12.460Z,100.00
2022-10-07T16:52:50.819Z,100.00
2022-10-07T16:55:28.443Z,100.00
2022-10-07T16:57:57.257Z,100.00
2022-10-07T17:00:26.536Z,100.00
2022-10-07T17:02:55.323Z,100.00
2022-10-07T17:05:29.857Z,100.00
2022-10-07T17:08:00.278Z,100.00
2022-10-07T17:10:34.812Z,100.00
2022-10-07T17:13:42.380Z,100.00
2022-10-07T17:16:19.020Z,100.00
2022-10-07T17:19:11.627Z,100.00
2022-10-07T17:21:45.389Z,100.00
2022-10-07T17:24:32.841Z,100.00
2022-10-07T17:30:55.051Z,100.00
2022-10-07T17:33:34.127Z,100.00
2022-10-07T17:36:17.553Z,100.00
2022-10-07T17:38:49.775Z,100.00
2022-10-07T17:41:58.203Z,100.00
2022-10-07T17:45:04.971Z,100.00
2022-10-07T17:47:48.494Z,100.00
2022-10-07T17:53:25.859Z,100.00
2022-10-07T17:58:59.899Z,100.00
2022-10-07T18:07:55.345Z,100.00
2022-10-07T18:10:35.406Z,100.00
2022-10-07T18:13:26.687Z,100.00
2022-10-07T18:16:15.819Z,100.00
2022-10-07T18:28:02.711Z,100.00
2022-10-07T18:30:46.092Z,100.00
2022-10-07T18:33:56.570Z,100.00
2022-10-07T18:36:40.450Z,100.00
2022-10-07T18:39:33.825Z,100.00
2022-10-07T19:10:32.258Z,100.00
2022-10-07T19:17:05.001Z,100.00
2022-10-07T19:22:53.381Z,100.00
2022-10-07T19:25:50.898Z,100.00
2022-10-07T19:28:21.911Z,100.00
2022-10-07T19:31:09.260Z,100.00
2022-10-07T19:37:01.295Z,100.00
2022-10-07T19:39:43.987Z,100.00
2022-10-07T19:42:13.360Z,100.00
2022-10-07T19:44:52.403Z,100.00
2022-10-07T19:50:42.080Z,100.00
2022-10-07T19:53:33.605Z,100.00
2022-10-07T19:56:16.054Z,100.00
2022-10-07T20:05:00.519Z,100.00
2022-10-07T20:16:27.034Z,100.00
2022-10-07T20:19:04.831Z,100.00
2022-10-07T20:20:02.695Z,100.00
2022-10-07T20:21:56.139Z,100.00
2022-10-07T20:30:43.106Z,100.00
2022-10-07T20:36:39.087Z,100.00
2022-10-07T20:40:02.466Z,100.00
2022-10-07T20:42:36.618Z,100.00
2022-10-07T20:45:37.905Z,100.00
2022-10-07T20:48:23.786Z,100.00
2022-10-07T20:51:15.285Z,100.00
2022-10-07T20:54:03.862Z,100.00
2022-10-07T20:56:39.132Z,100.00
2022-10-07T20:59:18.695Z,100.00
2022-10-07T21:05:05.814Z,100.00
2022-10-07T21:10:49.145Z,100.00
2022-10-07T21:13:22.952Z,100.00
2022-10-07T21:16:03.848Z,100.00
2022-10-07T21:24:13.201Z,100.00
2022-10-07T21:29:46.791Z,100.00
2022-10-07T21:32:39.887Z,100.00
2022-10-07T21:35:11.053Z,100.00
2022-10-07T21:37:45.709Z,100.00
2022-10-07T21:40:18.313Z,100.00
2022-10-07T21:42:56.789Z,100.00
2022-10-07T21:45:41.567Z,100.00
2022-10-07T21:51:48.862Z,100.00
2022-10-07T21:55:23.377Z,100.00
2022-10-07T21:58:21.454Z,100.00
2022-10-07T22:05:17.505Z,100.00
2022-10-07T22:08:42.217Z,100.00
2022-10-07T22:15:51.123Z,100.00
2022-10-07T22:18:49.070Z,100.00
2022-10-07T22:35:29.406Z,100.00
2022-10-07T22:37:59.415Z,100.00
2022-10-07T22:43:43.595Z,100.00
2022-10-07T22:53:30.946Z,100.00
2022-10-07T23:39:11.323Z,100.00
2022-10-07T23:41:50.007Z,100.00
2022-10-07T23:53:37.409Z,100.00
2022-10-07T23:56:18.976Z,100.00
2022-10-07T23:59:25.666Z,100.00
